Time;durP1;ratioP1;P1;durP2;ratioP2;P2;SDS_P1;SDS_P2;PMS_P1;PMS_P2;Temp;Humidity;BMP_temperature;BMP_pressure;BME280_temperature;BME280_humidity;BME280_pressure;Samples;Min_cycle;Max_cycle;Signal;HPM_P1;HPM_P2
2021/01/07 00:01:39;;;;;;;17.67;12.10;;;2.20;99.90;;;;;;484858;245;27419;-70
2021/01/07 00:03:40;;;;;;;20.17;13.85;;;2.20;99.90;;;;;;484894;245;27376;-69
2021/01/07 00:05:42;;;;;;;18.50;13.55;;;2.20;99.90;;;;;;484887;245;27512;-69
2021/01/07 00:07:43;;;;;;;20.15;14.00;;;2.10;99.90;;;;;;484923;245;27508;-69
2021/01/07 00:09:44;;;;;;;19.65;11.95;;;2.10;99.90;;;;;;484825;245;27844;-69
2021/01/07 00:11:45;;;;;;;22.42;12.07;;;2.10;99.90;;;;;;484732;245;28207;-69
2021/01/07 00:13:46;;;;;;;20.08;13.10;;;2.10;99.90;;;;;;484812;245;27534;-69
2021/01/07 00:15:48;;;;;;;22.70;13.70;;;2.10;99.90;;;;;;484782;245;27439;-70
2021/01/07 00:17:49;;;;;;;24.52;14.68;;;2.10;99.90;;;;;;484790;245;27408;-69
2021/01/07 00:19:50;;;;;;;24.42;15.70;;;2.10;99.90;;;;;;484769;245;27419;-69
2021/01/07 00:21:51;;;;;;;27.75;15.55;;;2.10;99.90;;;;;;484753;245;27459;-69
2021/01/07 00:23:53;;;;;;;23.33;16.00;;;2.10;99.90;;;;;;484709;245;27423;-69
2021/01/07 00:25:54;;;;;;;25.95;15.70;;;2.20;99.90;;;;;;484730;245;27895;-69
2021/01/07 00:27:55;;;;;;;24.35;15.50;;;2.10;99.90;;;;;;484757;245;27870;-69
2021/01/07 00:29:57;;;;;;;26.40;16.85;;;2.00;99.90;;;;;;484763;245;27494;-69
2021/01/07 00:31:58;;;;;;;27.83;16.25;;;2.10;99.90;;;;;;484735;245;27469;-69
2021/01/07 00:33:59;;;;;;;28.65;18.58;;;2.10;99.90;;;;;;484787;245;27531;-69
2021/01/07 00:36:00;;;;;;;27.73;17.65;;;2.10;99.90;;;;;;484781;245;27544;-70
2021/01/07 00:38:02;;;;;;;26.65;17.20;;;2.20;99.90;;;;;;484810;245;27417;-69
2021/01/07 00:40:03;;;;;;;28.95;16.83;;;2.20;99.90;;;;;;484702;245;27958;-70
2021/01/07 00:42:04;;;;;;;27.60;15.57;;;2.20;99.90;;;;;;484821;245;27922;-69
2021/01/07 00:44:05;;;;;;;27.73;16.87;;;2.30;99.90;;;;;;484825;245;27423;-69
2021/01/07 00:46:07;;;;;;;26.35;16.67;;;2.20;99.90;;;;;;484826;245;27434;-70
2021/01/07 00:48:08;;;;;;;27.00;16.73;;;2.20;99.90;;;;;;484820;245;27419;-68
2021/01/07 00:50:09;;;;;;;30.33;18.05;;;2.20;99.90;;;;;;484739;245;27629;-71
2021/01/07 00:52:10;;;;;;;31.75;17.90;;;2.20;99.90;;;;;;484995;245;27467;-68
2021/01/07 00:54:12;;;;;;;35.53;18.40;;;2.20;99.90;;;;;;485001;245;27427;-69
2021/01/07 00:56:13;;;;;;;28.52;16.73;;;2.10;99.90;;;;;;484988;245;29083;-70
2021/01/07 00:58:14;;;;;;;33.47;18.85;;;2.10;99.90;;;;;;484976;245;28928;-68
2021/01/07 01:00:15;;;;;;;33.30;18.87;;;2.10;99.90;;;;;;484856;245;27443;-70
2021/01/07 01:02:17;;;;;;;29.87;17.37;;;2.10;99.90;;;;;;484917;245;27410;-69
2021/01/07 01:04:18;;;;;;;29.17;17.67;;;2.20;99.90;;;;;;484875;245;27419;-69
2021/01/07 01:06:19;;;;;;;26.37;17.00;;;2.20;99.90;;;;;;484887;245;27405;-70
2021/01/07 01:08:20;;;;;;;33.33;17.85;;;2.30;99.90;;;;;;484867;245;27470;-69
2021/01/07 01:10:22;;;;;;;34.03;19.95;;;2.20;99.90;;;;;;484751;245;27412;-69
2021/01/07 01:12:23;;;;;;;33.72;18.40;;;2.20;99.90;;;;;;484801;245;27836;-69
2021/01/07 01:14:24;;;;;;;30.02;18.70;;;2.30;99.90;;;;;;484777;245;27977;-69
2021/01/07 01:16:26;;;;;;;33.88;18.40;;;2.30;99.90;;;;;;484795;245;27419;-69
2021/01/07 01:18:27;;;;;;;35.13;18.37;;;2.30;99.90;;;;;;484784;245;27419;-69
2021/01/07 01:20:28;;;;;;;29.73;18.27;;;2.20;99.90;;;;;;484763;245;27419;-70
2021/01/07 01:22:29;;;;;;;29.73;18.50;;;2.20;99.90;;;;;;484835;245;27482;-69
2021/01/07 01:24:30;;;;;;;30.30;17.87;;;2.20;99.90;;;;;;484791;245;27392;-69
2021/01/07 01:26:32;;;;;;;34.78;18.75;;;2.20;99.90;;;;;;484813;245;27415;-70
2021/01/07 01:28:33;;;;;;;33.40;18.75;;;2.20;99.90;;;;;;484865;245;28766;-69
2021/01/07 01:30:34;;;;;;;31.08;18.70;;;2.20;99.90;;;;;;484833;245;28034;-69
2021/01/07 01:32:35;;;;;;;32.92;19.90;;;2.30;99.90;;;;;;484898;245;27506;-70
2021/01/07 01:34:37;;;;;;;32.40;19.48;;;2.30;99.90;;;;;;484837;245;27431;-69
2021/01/07 01:36:38;;;;;;;31.05;18.08;;;2.30;99.90;;;;;;484796;245;27425;-69
2021/01/07 01:38:39;;;;;;;32.25;19.62;;;2.20;99.90;;;;;;484832;245;27462;-69
2021/01/07 01:40:40;;;;;;;32.88;19.50;;;2.20;99.90;;;;;;484749;245;27505;-70
2021/01/07 01:42:42;;;;;;;33.63;18.40;;;2.10;99.90;;;;;;484805;245;27859;-69
2021/01/07 01:44:43;;;;;;;35.35;19.33;;;2.10;99.90;;;;;;484768;245;27894;-69
2021/01/07 01:46:44;;;;;;;31.52;18.62;;;2.20;99.90;;;;;;484794;245;27495;-69
2021/01/07 01:48:46;;;;;;;35.70;21.20;;;2.20;99.90;;;;;;484770;245;27423;-69
2021/01/07 01:50:47;;;;;;;30.85;19.23;;;2.30;99.90;;;;;;484727;245;27420;-70
2021/01/07 01:52:48;;;;;;;29.63;17.95;;;2.20;99.90;;;;;;484784;245;27455;-69
2021/01/07 01:54:49;;;;;;;35.15;19.30;;;2.30;99.90;;;;;;484780;245;27439;-69
2021/01/07 01:56:51;;;;;;;32.20;19.00;;;2.30;99.90;;;;;;484772;245;27497;-69
2021/01/07 01:58:52;;;;;;;30.80;18.30;;;2.30;99.90;;;;;;484788;245;27887;-71
2021/01/07 02:00:53;;;;;;;33.30;19.15;;;2.30;99.90;;;;;;484709;245;27947;-71
2021/01/07 02:02:54;;;;;;;33.22;19.45;;;2.30;99.90;;;;;;484774;245;27423;-69
2021/01/07 02:04:56;;;;;;;29.45;17.58;;;2.30;99.90;;;;;;484750;245;27509;-69
2021/01/07 02:06:57;;;;;;;40.05;20.33;;;2.30;99.90;;;;;;484778;245;27380;-69
2021/01/07 02:08:58;;;;;;;34.15;20.00;;;2.30;99.90;;;;;;484813;245;27518;-70
2021/01/07 02:10:59;;;;;;;33.33;18.67;;;2.30;99.90;;;;;;484813;245;27378;-69
2021/01/07 02:13:01;;;;;;;30.50;19.17;;;2.30;99.90;;;;;;484879;245;27483;-69
2021/01/07 02:15:02;;;;;;;31.00;18.83;;;2.30;99.90;;;;;;484790;245;28729;-68
2021/01/07 02:17:03;;;;;;;34.60;20.73;;;2.30;99.90;;;;;;484739;245;28013;-69
2021/01/07 02:19:04;;;;;;;32.03;21.17;;;2.30;99.90;;;;;;484798;245;27423;-69
2021/01/07 02:21:06;;;;;;;30.80;19.55;;;2.30;99.90;;;;;;484740;245;27436;-69
2021/01/07 02:23:07;;;;;;;34.78;19.40;;;2.30;99.90;;;;;;484778;245;27431;-69
2021/01/07 02:25:09;;;;;;;33.25;20.37;;;2.30;99.90;;;;;;484820;245;27847;-71
2021/01/07 02:27:09;;;;;;;37.28;19.30;;;2.20;99.90;;;;;;484776;242;27386;-69
2021/01/07 02:29:11;;;;;;;29.02;18.37;;;2.30;99.90;;;;;;484920;245;27891;-69
2021/01/07 02:31:12;;;;;;;31.67;19.45;;;2.30;99.90;;;;;;484920;245;27915;-69
2021/01/07 02:33:13;;;;;;;29.73;17.98;;;2.20;99.90;;;;;;484931;245;27403;-68
2021/01/07 02:35:14;;;;;;;32.20;18.27;;;2.30;99.90;;;;;;484979;245;27508;-71
2021/01/07 02:37:16;;;;;;;32.40;19.55;;;2.20;99.90;;;;;;484956;245;27415;-69
2021/01/07 02:39:17;;;;;;;37.55;20.48;;;2.20;99.90;;;;;;484961;245;27415;-69
2021/01/07 02:41:18;;;;;;;34.38;19.83;;;2.20;99.90;;;;;;484875;245;27379;-69
2021/01/07 02:43:19;;;;;;;29.87;18.70;;;2.20;99.90;;;;;;484875;245;27494;-69
2021/01/07 02:45:21;;;;;;;33.53;19.40;;;2.20;99.90;;;;;;484887;245;27862;-70
2021/01/07 02:47:22;;;;;;;30.42;18.58;;;2.20;99.90;;;;;;484791;245;28943;-69
2021/01/07 02:49:23;;;;;;;30.08;18.20;;;2.20;99.90;;;;;;484795;245;27435;-69
2021/01/07 02:51:24;;;;;;;32.38;19.67;;;2.20;99.90;;;;;;484759;245;27419;-70
2021/01/07 02:53:26;;;;;;;29.95;18.55;;;2.20;99.90;;;;;;484828;245;27514;-69
2021/01/07 02:55:27;;;;;;;26.05;16.73;;;2.20;99.90;;;;;;484857;245;27552;-68
2021/01/07 02:57:28;;;;;;;30.95;18.80;;;2.20;99.90;;;;;;484888;245;27475;-68
2021/01/07 02:59:29;;;;;;;31.08;18.45;;;2.10;99.90;;;;;;484876;245;27498;-70
2021/01/07 03:01:32;;;;;;;30.05;19.20;;;2.00;99.90;;;;;;484820;245;27953;-69
2021/01/07 03:03:32;;;;;;;27.80;17.70;;;2.00;99.90;;;;;;485067;245;28038;-69
2021/01/07 03:05:33;;;;;;;30.17;18.42;;;2.00;99.90;;;;;;485141;245;27372;-69
2021/01/07 03:07:35;;;;;;;31.25;18.10;;;2.10;99.90;;;;;;485147;245;27373;-69
2021/01/07 03:09:36;;;;;;;29.73;18.15;;;2.10;99.90;;;;;;485125;245;27459;-70
2021/01/07 03:11:37;;;;;;;30.65;18.33;;;2.10;99.90;;;;;;485122;245;27555;-69
2021/01/07 03:13:38;;;;;;;33.47;18.77;;;2.10;99.90;;;;;;485129;245;27384;-69
2021/01/07 03:15:40;;;;;;;27.95;18.48;;;2.10;99.90;;;;;;485133;245;27941;-69
2021/01/07 03:17:41;;;;;;;30.67;18.87;;;2.10;99.90;;;;;;484811;245;28026;-70
2021/01/07 03:19:42;;;;;;;33.55;19.00;;;2.10;99.90;;;;;;484810;245;27396;-69
2021/01/07 03:21:43;;;;;;;29.52;18.00;;;2.20;99.90;;;;;;484746;245;27514;-69
2021/01/07 03:23:45;;;;;;;29.10;19.50;;;2.20;99.90;;;;;;484784;245;27518;-70
2021/01/07 03:25:46;;;;;;;29.20;18.02;;;2.20;99.90;;;;;;484803;245;27407;-69
2021/01/07 03:27:47;;;;;;;32.30;17.90;;;2.20;99.90;;;;;;484835;245;27547;-70
2021/01/07 03:29:48;;;;;;;31.52;18.12;;;2.20;99.90;;;;;;484881;245;27460;-68
2021/01/07 03:31:50;;;;;;;28.52;17.37;;;2.20;99.90;;;;;;484772;245;27871;-69
2021/01/07 03:33:51;;;;;;;30.65;18.55;;;2.10;99.90;;;;;;484821;245;29794;-71
2021/01/07 03:35:52;;;;;;;31.05;18.30;;;2.10;99.90;;;;;;484835;245;27394;-69
2021/01/07 03:37:53;;;;;;;31.30;18.52;;;2.00;99.90;;;;;;485003;245;27491;-70
2021/01/07 03:39:55;;;;;;;35.45;19.42;;;2.00;99.90;;;;;;484970;245;27367;-71
2021/01/07 03:41:56;;;;;;;32.47;19.20;;;2.00;99.90;;;;;;484933;245;27459;-69
2021/01/07 03:43:57;;;;;;;33.83;19.80;;;2.00;99.90;;;;;;484985;245;27865;-71
2021/01/07 03:45:58;;;;;;;35.63;19.40;;;1.90;99.90;;;;;;484969;245;27459;-69
2021/01/07 03:48:00;;;;;;;34.38;21.35;;;2.00;99.90;;;;;;484972;245;27879;-69
2021/01/07 03:50:01;;;;;;;36.50;20.42;;;2.00;99.90;;;;;;484938;245;27831;-69
2021/01/07 03:52:02;;;;;;;34.45;20.15;;;2.10;99.90;;;;;;484933;245;27399;-68
2021/01/07 03:54:03;;;;;;;31.00;19.02;;;2.00;99.90;;;;;;484933;245;27474;-71
2021/01/07 03:56:05;;;;;;;35.70;20.62;;;2.00;99.90;;;;;;484943;245;27379;-69
2021/01/07 03:58:06;;;;;;;34.67;19.60;;;1.90;99.90;;;;;;484870;245;27550;-69
2021/01/07 04:00:07;;;;;;;35.22;18.25;;;2.00;99.90;;;;;;484799;245;27495;-70
2021/01/07 04:02:08;;;;;;;33.42;19.52;;;1.90;99.90;;;;;;484767;245;27887;-69
2021/01/07 04:04:10;;;;;;;30.92;18.98;;;1.90;99.90;;;;;;484788;245;27971;-70
2021/01/07 04:06:11;;;;;;;33.00;18.30;;;1.90;99.90;;;;;;484791;245;27831;-69
2021/01/07 04:08:12;;;;;;;31.90;18.20;;;1.80;99.90;;;;;;484781;245;27455;-69
2021/01/07 04:10:13;;;;;;;24.42;15.95;;;1.80;99.90;;;;;;484727;245;27491;-69
2021/01/07 04:12:15;;;;;;;29.92;17.65;;;1.80;99.90;;;;;;484743;245;27446;-68
2021/01/07 04:14:16;;;;;;;28.08;16.92;;;1.80;99.90;;;;;;484772;245;27867;-71
2021/01/07 04:16:17;;;;;;;35.15;19.70;;;1.80;99.90;;;;;;484767;245;27427;-69
2021/01/07 04:18:18;;;;;;;30.45;17.65;;;1.80;99.90;;;;;;484792;245;28036;-70
2021/01/07 04:20:20;;;;;;;30.33;18.35;;;1.80;99.90;;;;;;484759;245;27901;-70
2021/01/07 04:22:21;;;;;;;32.35;18.85;;;1.80;99.90;;;;;;484832;245;27507;-69
2021/01/07 04:24:22;;;;;;;33.90;19.05;;;1.90;99.90;;;;;;484871;245;27533;-69
2021/01/07 04:26:24;;;;;;;30.33;18.20;;;1.90;99.90;;;;;;484869;245;27482;-68
2021/01/07 04:28:25;;;;;;;35.28;18.73;;;1.90;99.90;;;;;;484907;245;27582;-70
2021/01/07 04:30:26;;;;;;;30.50;18.92;;;1.90;99.90;;;;;;484133;245;27883;-69
2021/01/07 04:32:27;;;;;;;31.70;18.33;;;1.90;99.90;;;;;;484680;245;27431;-69
2021/01/07 04:34:29;;;;;;;27.77;17.27;;;1.90;99.90;;;;;;484754;245;27975;-68
2021/01/07 04:36:30;;;;;;;30.65;18.80;;;1.80;99.90;;;;;;484813;245;27980;-70
2021/01/07 04:38:31;;;;;;;32.78;18.87;;;1.90;99.90;;;;;;484797;245;27435;-69
2021/01/07 04:40:32;;;;;;;29.52;17.50;;;1.90;99.90;;;;;;484713;245;27482;-69
2021/01/07 04:42:34;;;;;;;30.33;18.67;;;1.90;99.90;;;;;;484812;245;27502;-70
2021/01/07 04:44:35;;;;;;;30.42;17.62;;;1.90;99.90;;;;;;484767;245;27414;-68
2021/01/07 04:46:36;;;;;;;33.97;19.30;;;1.80;99.90;;;;;;484767;245;27427;-69
2021/01/07 04:48:37;;;;;;;28.90;17.27;;;1.80;99.90;;;;;;484752;245;27479;-69
2021/01/07 04:50:39;;;;;;;30.48;18.48;;;1.80;99.90;;;;;;484714;245;28137;-69
2021/01/07 04:52:40;;;;;;;33.65;17.95;;;1.80;99.90;;;;;;484841;245;28004;-70
2021/01/07 04:54:41;;;;;;;32.47;19.02;;;1.70;99.90;;;;;;484871;245;27387;-68
2021/01/07 04:56:42;;;;;;;28.70;17.60;;;1.70;99.90;;;;;;484864;245;27419;-69
2021/01/07 04:58:44;;;;;;;33.47;18.90;;;1.80;99.90;;;;;;484844;245;27406;-69
2021/01/07 05:00:45;;;;;;;32.25;18.08;;;1.80;99.90;;;;;;484775;245;27499;-69
2021/01/07 05:02:46;;;;;;;32.28;18.40;;;1.80;99.90;;;;;;484836;245;27428;-70
2021/01/07 05:04:47;;;;;;;29.63;18.35;;;1.80;99.90;;;;;;484895;245;27910;-69
2021/01/07 05:06:49;;;;;;;32.67;17.20;;;1.90;99.90;;;;;;484860;245;27969;-69
2021/01/07 05:08:50;;;;;;;32.08;17.48;;;1.90;99.90;;;;;;484852;245;28038;-69
2021/01/07 05:10:51;;;;;;;30.83;17.70;;;1.90;99.90;;;;;;484783;245;27435;-69
2021/01/07 05:12:53;;;;;;;30.10;17.52;;;1.90;99.90;;;;;;484849;245;27475;-70
2021/01/07 05:14:54;;;;;;;28.12;15.77;;;1.80;99.90;;;;;;484767;245;27427;-69
2021/01/07 05:16:55;;;;;;;29.67;15.63;;;1.80;99.90;;;;;;484761;245;27431;-69
2021/01/07 05:18:56;;;;;;;29.55;17.15;;;1.90;99.90;;;;;;484737;245;27415;-69
2021/01/07 05:20:57;;;;;;;36.75;17.55;;;1.80;99.90;;;;;;484693;245;27894;-68
2021/01/07 05:23:00;;;;;;;33.20;18.98;;;1.90;99.90;;;;;;484781;245;28138;-69
2021/01/07 05:25:00;;;;;;;31.25;16.77;;;1.80;99.90;;;;;;484785;245;27520;-69
2021/01/07 05:27:01;;;;;;;32.63;17.23;;;1.80;99.90;;;;;;484803;245;27604;-69
2021/01/07 05:29:02;;;;;;;34.50;17.40;;;1.90;99.90;;;;;;484753;245;27526;-70
2021/01/07 05:31:04;;;;;;;31.25;17.05;;;1.90;99.90;;;;;;484714;245;27522;-69
2021/01/07 05:33:05;;;;;;;30.73;16.95;;;1.90;99.90;;;;;;484812;245;27488;-70
2021/01/07 05:35:06;;;;;;;36.15;18.73;;;1.90;99.90;;;;;;484797;245;27387;-69
2021/01/07 05:37:08;;;;;;;31.60;17.98;;;1.80;99.90;;;;;;484798;245;27995;-69
2021/01/07 05:39:09;;;;;;;32.45;17.67;;;1.80;99.90;;;;;;484773;245;28994;-70
2021/01/07 05:41:10;;;;;;;32.67;17.67;;;1.80;99.90;;;;;;484716;245;27411;-69
2021/01/07 05:43:11;;;;;;;30.55;16.90;;;1.80;99.90;;;;;;484818;245;27410;-69
2021/01/07 05:45:13;;;;;;;30.75;16.37;;;1.80;99.90;;;;;;484836;245;27403;-68
2021/01/07 05:47:14;;;;;;;33.42;17.83;;;1.80;99.90;;;;;;484789;245;27508;-69
2021/01/07 05:49:15;;;;;;;36.42;18.55;;;1.80;99.90;;;;;;484776;245;27506;-69
2021/01/07 05:51:16;;;;;;;32.03;16.90;;;1.80;99.90;;;;;;484765;245;28729;-68
2021/01/07 05:53:18;;;;;;;36.22;18.45;;;1.80;99.90;;;;;;484826;245;27904;-69
2021/01/07 05:55:19;;;;;;;34.28;18.17;;;1.70;99.90;;;;;;484875;245;27988;-70
2021/01/07 05:57:20;;;;;;;32.85;17.08;;;1.60;99.90;;;;;;484858;245;27396;-69
2021/01/07 05:59:21;;;;;;;32.63;17.87;;;1.60;99.90;;;;;;484864;245;27423;-69
2021/01/07 06:01:23;;;;;;;34.95;18.87;;;1.60;99.90;;;;;;484817;245;27459;-69
2021/01/07 06:03:24;;;;;;;36.90;18.42;;;1.60;99.90;;;;;;484905;245;27872;-71
2021/01/07 06:05:25;;;;;;;34.95;18.60;;;1.70;99.90;;;;;;484830;245;27469;-69
2021/01/07 06:07:26;;;;;;;30.45;17.73;;;1.70;99.90;;;;;;485030;245;28058;-69
2021/01/07 06:09:28;;;;;;;35.65;19.02;;;1.70;99.90;;;;;;485141;245;27824;-69
2021/01/07 06:11:29;;;;;;;37.28;19.30;;;1.70;99.90;;;;;;484803;245;27626;-69
2021/01/07 06:13:30;;;;;;;38.25;18.73;;;1.60;99.90;;;;;;484762;245;27495;-69
2021/01/07 06:15:31;;;;;;;36.42;18.85;;;1.60;99.90;;;;;;484790;245;27431;-69
2021/01/07 06:17:33;;;;;;;35.90;19.10;;;1.70;99.90;;;;;;484784;245;27423;-69
2021/01/07 06:19:34;;;;;;;34.50;18.33;;;1.70;99.90;;;;;;484756;245;27423;-69
2021/01/07 06:21:35;;;;;;;36.05;19.08;;;1.70;99.90;;;;;;484767;245;27440;-71
2021/01/07 06:23:36;;;;;;;34.65;18.70;;;1.70;99.90;;;;;;484857;245;28695;-70
2021/01/07 06:25:38;;;;;;;41.08;20.92;;;1.70;99.90;;;;;;484764;245;27901;-70
2021/01/07 06:27:39;;;;;;;37.60;18.90;;;1.80;99.90;;;;;;484751;245;27491;-70
2021/01/07 06:29:40;;;;;;;36.40;19.45;;;1.80;99.90;;;;;;484766;245;27503;-70
2021/01/07 06:31:41;;;;;;;39.35;18.80;;;1.70;99.90;;;;;;484755;245;27658;-70
2021/01/07 06:33:43;;;;;;;39.83;19.80;;;1.80;99.90;;;;;;484852;245;27419;-70
2021/01/07 06:35:44;;;;;;;40.47;20.85;;;1.80;99.90;;;;;;484865;245;27427;-70
2021/01/07 06:37:45;;;;;;;43.50;21.27;;;1.70;99.90;;;;;;484862;245;27986;-72
2021/01/07 06:39:46;;;;;;;44.25;21.10;;;1.70;99.90;;;;;;484864;245;27871;-70
2021/01/07 06:41:48;;;;;;;40.78;20.90;;;1.70;99.90;;;;;;484855;245;27909;-70
2021/01/07 06:43:49;;;;;;;36.97;18.90;;;1.60;99.90;;;;;;484912;245;27423;-70
2021/01/07 06:45:50;;;;;;;39.05;20.40;;;1.60;99.90;;;;;;484932;245;27411;-70
2021/01/07 06:47:51;;;;;;;38.90;18.83;;;1.70;99.90;;;;;;484969;245;27418;-72
2021/01/07 06:49:54;;;;;;;36.92;19.95;;;1.60;99.90;;;;;;484971;245;27468;-70
2021/01/07 06:51:54;;;;;;;35.17;18.17;;;1.60;99.90;;;;;;484835;245;27431;-69
2021/01/07 06:53:55;;;;;;;36.17;19.45;;;1.60;99.90;;;;;;484939;245;28612;-70
2021/01/07 06:55:57;;;;;;;34.65;18.23;;;1.60;99.90;;;;;;484925;245;27843;-70
2021/01/07 06:57:58;;;;;;;33.60;18.83;;;1.60;99.90;;;;;;484959;245;27427;-70
2021/01/07 06:59:59;;;;;;;35.58;19.45;;;1.60;99.90;;;;;;484960;245;27371;-70
2021/01/07 07:02:00;;;;;;;34.67;18.37;;;1.60;99.90;;;;;;484938;245;27498;-71
2021/01/07 07:04:02;;;;;;;35.78;18.77;;;1.60;99.90;;;;;;484970;245;27478;-71
2021/01/07 07:06:03;;;;;;;36.63;18.48;;;1.60;99.90;;;;;;484903;245;27452;-70
2021/01/07 07:08:05;;;;;;;37.72;20.27;;;1.60;99.90;;;;;;484895;245;27426;-71
2021/01/07 07:10:05;;;;;;;38.03;20.08;;;1.60;99.90;;;;;;484803;245;27877;-70
2021/01/07 07:12:07;;;;;;;33.17;17.52;;;1.60;99.90;;;;;;484751;245;27906;-70
2021/01/07 07:14:08;;;;;;;39.53;19.23;;;1.60;99.90;;;;;;484803;245;27419;-70
2021/01/07 07:16:10;;;;;;;35.28;17.65;;;1.60;99.90;;;;;;484792;245;27517;-70
2021/01/07 07:18:10;;;;;;;41.55;19.15;;;1.60;99.90;;;;;;484753;245;27403;-72
2021/01/07 07:20:12;;;;;;;37.08;18.95;;;1.60;99.90;;;;;;484794;245;27443;-70
2021/01/07 07:22:13;;;;;;;36.88;19.27;;;1.60;99.90;;;;;;484778;245;27502;-71
2021/01/07 07:24:14;;;;;;;31.15;17.15;;;1.70;99.90;;;;;;484798;245;27966;-70
2021/01/07 07:26:15;;;;;;;36.05;18.90;;;1.60;99.90;;;;;;484756;245;27911;-70
2021/01/07 07:28:17;;;;;;;36.42;19.35;;;1.70;99.90;;;;;;484808;245;27969;-71
2021/01/07 07:30:18;;;;;;;36.08;19.00;;;1.60;99.90;;;;;;484910;245;27399;-72
2021/01/07 07:32:19;;;;;;;35.28;19.35;;;1.60;99.90;;;;;;484842;245;27391;-71
2021/01/07 07:34:20;;;;;;;36.55;18.33;;;1.60;99.90;;;;;;484952;245;27475;-71
2021/01/07 07:36:22;;;;;;;34.95;18.23;;;1.60;99.90;;;;;;484945;245;27496;-70
2021/01/07 07:38:23;;;;;;;35.90;19.50;;;1.60;99.90;;;;;;484755;245;27415;-70
2021/01/07 07:40:24;;;;;;;33.78;17.80;;;1.60;99.90;;;;;;484749;245;27886;-71
2021/01/07 07:42:25;;;;;;;38.13;17.60;;;1.60;99.90;;;;;;484774;245;27980;-71
2021/01/07 07:44:27;;;;;;;36.42;18.12;;;1.60;99.90;;;;;;484778;245;27420;-70
2021/01/07 07:46:28;;;;;;;36.30;18.08;;;1.60;99.90;;;;;;484744;245;27437;-70
2021/01/07 07:48:29;;;;;;;33.53;17.17;;;1.70;99.90;;;;;;484672;245;27407;-70
2021/01/07 07:50:30;;;;;;;39.85;18.73;;;1.70;99.90;;;;;;484711;245;27420;-71
2021/01/07 07:52:32;;;;;;;37.53;18.80;;;1.70;99.90;;;;;;484743;245;27408;-70
2021/01/07 07:54:33;;;;;;;35.65;17.37;;;1.70;99.90;;;;;;484760;245;27484;-70
2021/01/07 07:56:34;;;;;;;35.58;18.35;;;1.70;99.90;;;;;;484804;245;27964;-72
2021/01/07 07:58:35;;;;;;;32.33;16.98;;;1.70;99.90;;;;;;484808;245;28590;-70
2021/01/07 08:00:37;;;;;;;39.10;19.50;;;1.70;99.90;;;;;;484716;245;27506;-70
2021/01/07 08:02:38;;;;;;;37.78;19.40;;;1.70;99.90;;;;;;484755;245;27504;-70
2021/01/07 08:04:39;;;;;;;38.67;19.10;;;1.70;99.90;;;;;;484788;245;27490;-70
2021/01/07 08:06:40;;;;;;;38.88;19.35;;;1.70;99.90;;;;;;484804;245;27435;-71
2021/01/07 08:08:42;;;;;;;39.20;19.90;;;1.80;99.90;;;;;;484811;245;27475;-70
2021/01/07 08:10:43;;;;;;;38.08;18.85;;;1.70;99.90;;;;;;484732;245;27511;-70
2021/01/07 08:12:44;;;;;;;38.63;20.05;;;1.70;99.90;;;;;;484780;245;28447;-72
2021/01/07 08:14:46;;;;;;;40.30;21.30;;;1.70;99.90;;;;;;484831;245;27830;-70
2021/01/07 08:16:47;;;;;;;40.65;21.10;;;1.70;99.90;;;;;;484851;245;27412;-71
2021/01/07 08:18:48;;;;;;;38.95;19.87;;;1.70;99.90;;;;;;484952;245;27415;-70
2021/01/07 08:20:51;;;;;;;39.38;19.45;;;1.80;99.90;;;;;;484924;245;27486;-70
2021/01/07 08:22:51;;;;;;;38.20;19.05;;;1.80;99.90;;;;;;484888;245;27859;-72
2021/01/07 08:24:52;;;;;;;37.72;19.27;;;1.70;99.90;;;;;;484937;245;27479;-70
2021/01/07 08:26:53;;;;;;;45.58;20.85;;;1.80;99.90;;;;;;484945;245;27883;-71
2021/01/07 08:28:54;;;;;;;40.78;20.52;;;1.80;99.90;;;;;;484929;245;27835;-70
2021/01/07 08:30:56;;;;;;;37.35;20.25;;;1.80;99.90;;;;;;484811;245;27507;-71
2021/01/07 08:32:57;;;;;;;45.90;21.27;;;1.80;99.90;;;;;;484752;245;27408;-70
2021/01/07 08:34:58;;;;;;;40.20;19.45;;;1.80;99.90;;;;;;484788;245;27537;-70
2021/01/07 08:36:59;;;;;;;40.95;20.08;;;1.80;99.90;;;;;;484787;245;27423;-71
2021/01/07 08:39:01;;;;;;;40.03;19.33;;;1.90;99.90;;;;;;484766;245;27483;-71
2021/01/07 08:41:02;;;;;;;43.83;21.20;;;1.90;99.90;;;;;;484728;245;27529;-71
2021/01/07 08:43:03;;;;;;;34.97;19.35;;;1.90;99.90;;;;;;484753;245;28663;-70
2021/01/07 08:45:04;;;;;;;36.25;19.02;;;1.90;99.90;;;;;;484759;245;27914;-70
2021/01/07 08:47:06;;;;;;;37.50;18.83;;;1.90;99.90;;;;;;484671;245;27518;-71
2021/01/07 08:49:07;;;;;;;44.63;20.70;;;1.90;99.90;;;;;;484730;245;27423;-71
2021/01/07 08:51:08;;;;;;;39.42;19.65;;;1.90;99.90;;;;;;484708;245;27505;-70
2021/01/07 08:53:14;;;;;;;39.75;19.00;;;1.80;99.90;;;;;;484743;245;27435;-71
2021/01/07 08:55:11;;;;;;;42.65;18.98;;;1.90;99.90;;;;;;484480;245;27363;-70
2021/01/07 08:57:12;;;;;;;35.53;17.55;;;1.90;99.90;;;;;;484776;245;27423;-71
2021/01/07 08:59:13;;;;;;;41.63;19.98;;;1.90;99.90;;;;;;484791;245;27970;-71
2021/01/07 09:01:14;;;;;;;37.40;19.75;;;1.90;99.90;;;;;;484777;245;27933;-71
2021/01/07 09:03:16;;;;;;;36.85;18.87;;;1.90;99.90;;;;;;484831;245;27411;-72
2021/01/07 09:05:17;;;;;;;39.70;19.95;;;1.90;99.90;;;;;;484886;245;27488;-70
2021/01/07 09:07:18;;;;;;;38.35;18.87;;;1.90;99.90;;;;;;484900;245;27507;-70
2021/01/07 09:09:19;;;;;;;38.22;19.30;;;1.80;99.90;;;;;;484869;245;27446;-71
2021/01/07 09:11:21;;;;;;;40.00;19.87;;;1.80;99.90;;;;;;484750;245;27526;-71
2021/01/07 09:13:22;;;;;;;35.10;18.98;;;1.90;99.90;;;;;;484764;245;27979;-70
2021/01/07 09:15:23;;;;;;;37.78;18.12;;;1.90;99.90;;;;;;484798;245;28027;-72
2021/01/07 09:17:24;;;;;;;37.55;20.48;;;1.90;99.90;;;;;;484761;245;29064;-70
2021/01/07 09:19:26;;;;;;;36.83;18.62;;;2.00;99.90;;;;;;484794;245;27574;-71
2021/01/07 09:21:27;;;;;;;39.22;19.73;;;1.90;99.90;;;;;;484722;245;27406;-70
2021/01/07 09:23:28;;;;;;;34.40;17.45;;;2.00;99.90;;;;;;484793;245;27491;-70
2021/01/07 09:25:29;;;;;;;35.30;18.20;;;2.00;99.90;;;;;;484828;245;27515;-70
2021/01/07 09:27:31;;;;;;;37.67;19.33;;;2.00;99.90;;;;;;484805;245;27466;-70
2021/01/07 09:29:32;;;;;;;33.50;18.60;;;2.10;99.90;;;;;;484892;245;27985;-71
2021/01/07 09:31:33;;;;;;;46.50;19.80;;;2.10;99.90;;;;;;484855;245;28267;-70
2021/01/07 09:33:35;;;;;;;37.42;19.55;;;2.10;99.90;;;;;;484890;243;27546;-67
2021/01/07 09:35:36;;;;;;;37.58;20.40;;;2.00;99.90;;;;;;484910;245;27514;-69
2021/01/07 09:37:37;;;;;;;42.08;20.45;;;2.00;99.90;;;;;;484902;245;27383;-67
2021/01/07 09:39:38;;;;;;;36.50;20.02;;;2.10;99.90;;;;;;484927;245;27476;-70
2021/01/07 09:41:40;;;;;;;34.83;18.60;;;2.00;99.90;;;;;;484921;245;27502;-71
2021/01/07 09:43:41;;;;;;;38.25;20.73;;;1.90;99.90;;;;;;484961;245;27927;-69
2021/01/07 09:45:42;;;;;;;39.97;20.58;;;2.00;99.90;;;;;;484992;245;27998;-70
2021/01/07 09:47:43;;;;;;;40.15;19.33;;;2.10;99.90;;;;;;485002;245;28081;-70
2021/01/07 09:49:45;;;;;;;39.38;19.92;;;2.10;99.90;;;;;;484987;245;27462;-70
2021/01/07 09:51:46;;;;;;;35.97;19.48;;;2.10;99.90;;;;;;484937;245;27505;-71
2021/01/07 09:53:47;;;;;;;41.33;20.10;;;2.10;99.90;;;;;;484954;245;27404;-70
2021/01/07 09:55:48;;;;;;;35.60;19.20;;;2.10;99.90;;;;;;484924;245;27542;-70
2021/01/07 09:57:51;;;;;;;36.05;19.42;;;2.10;99.90;;;;;;484907;245;27419;-70
2021/01/07 09:59:51;;;;;;;35.95;18.08;;;2.10;99.90;;;;;;484864;245;28086;-70
2021/01/07 10:01:52;;;;;;;33.92;18.45;;;2.10;99.90;;;;;;484774;245;27952;-70
2021/01/07 10:03:53;;;;;;;33.83;18.05;;;2.10;99.90;;;;;;484832;245;27475;-70
2021/01/07 10:05:55;;;;;;;37.97;18.60;;;2.10;99.90;;;;;;484816;245;27424;-70
2021/01/07 10:07:58;;;;;;;35.40;19.62;;;2.20;99.90;;;;;;484802;245;27472;-71
2021/01/07 10:09:57;;;;;;;36.25;18.80;;;2.20;99.90;;;;;;484691;245;27415;-71
2021/01/07 10:11:58;;;;;;;33.53;18.52;;;2.20;99.90;;;;;;484807;245;28140;-70
2021/01/07 10:14:00;;;;;;;33.28;17.35;;;2.20;99.90;;;;;;484804;245;27384;-70
2021/01/07 10:16:01;;;;;;;32.15;17.45;;;2.10;99.90;;;;;;484791;245;27868;-70
2021/01/07 10:18:02;;;;;;;35.30;17.27;;;2.10;99.90;;;;;;484806;245;27913;-71
2021/01/07 10:20:03;;;;;;;30.15;17.42;;;2.10;99.90;;;;;;484729;245;27517;-72
2021/01/07 10:22:05;;;;;;;35.30;18.65;;;2.20;99.90;;;;;;484770;245;27427;-71